KSHR/SHR METAR and TAF weather

Enter ICAO airport designator
Station Type Date Time Source
KSHR METAR 2022/01/18 06:53 UTC NOAA

KSHR 180653Z AUTO 30006KT 10SM SCT120 07/M04 A2969 RMK AO2 SLP047 T00671044 401561039


Station Type Date Time Source
KSHR Decoded METAR 2022/01/18 06:53 UTC NOAA

SHERIDAN COUNTY AIRPORT, WY, United States (KSHR) 44-46N 106-58W 1202M
Jan 18, 2022 - 01:53 AM EST / 2022.01.18 0653 UTC
Wind: from the WNW (300 degrees) at 7 MPH (6 KT):0
Visibility: 10 mile(s):0
Sky conditions: partly cloudy
Temperature: 44.1 F (6.7 C)
Dew Point: 24.1 F (-4.4 C)
Relative Humidity: 44%
Pressure (altimeter): 29.69 in. Hg (1005 hPa)
ob: KSHR 180653Z AUTO 30006KT 10SM SCT120 07/M04 A2969 RMK AO2 SLP047 T00671044 401561039
cycle: 7

Station Type Date Time Source
KSHR TAF 2022/01/18 06:22 UTC NOAA

TAF KSHR 180520Z 1806/1906 VRB05KT P6SM SCT200
FM180900 26012KT P6SM FEW100 BKN150
FM181300 30015G30KT P6SM VCSH BKN050
FM181700 34015G23KT 6SM -SHRASN BR OVC020
FM182100 35011G18KT 5SM -SN BR OVC020
FM190200 35010KT 2SM -SN BR OVC010

Example: see airport list